Time;durP1;ratioP1;P1;durP2;ratioP2;P2;SDS_P1;SDS_P2;PMS_P1;PMS_P2;Temp;Humidity;BMP_temperature;BMP_pressure;BME280_temperature;BME280_humidity;BME280_pressure;Samples;Min_cycle;Max_cycle;Signal;HPM_P1;HPM_P2
2021/07/09 00:01:55;;;;;;;;;;;;;;;;;;6188240;23;20035;-61
2021/07/09 00:04:22;;;;;;;2.73;0.70;;;;;;;;;;6186964;23;19915;-61
2021/07/09 00:06:50;;;;;;;4.37;1.00;;;;;;;;;;6186835;23;20376;-61
2021/07/09 00:09:17;;;;;;;5.77;1.53;;;;;;;;;;6186976;23;20005;-61
2021/07/09 00:11:46;;;;;;;4.60;1.53;;;;;;;;;;6186806;23;20344;-61
2021/07/09 00:14:16;;;;;;;7.87;1.57;;;;;;;;;;6187211;23;20368;-61
2021/07/09 00:16:47;;;;;;;7.77;1.60;;;;;;;;;;6186794;23;20012;-61
2021/07/09 00:19:14;;;;;;;3.57;1.53;;;;;;;;;;6186993;23;19997;-61
2021/07/09 00:21:41;;;;;;;3.57;1.00;;;;;;;;;;6187126;23;20025;-61
2021/07/09 00:24:12;;;;;;;4.10;1.13;;;;;;;;;;6186929;23;20088;-61
2021/07/09 00:26:39;;;;;;;2.90;1.10;;;;;;;;;;6186705;23;20371;-61
2021/07/09 00:29:06;;;;;;;11.10;1.40;;;;;;;;;;6187344;22;20448;-60
2021/07/09 00:31:34;;;;;;;7.50;1.70;;;;;;;;;;6186289;23;20075;-61
2021/07/09 00:34:05;;;;;;;3.70;1.53;;;;;;;;;;6186755;23;20005;-61
2021/07/09 00:36:32;;;;;;;2.53;1.30;;;;;;;;;;6186710;23;19997;-61
2021/07/09 00:39:00;;;;;;;2.27;1.10;;;;;;;;;;6186821;23;20005;-61
2021/07/09 00:41:27;;;;;;;4.50;1.00;;;;;;;;;;6187319;23;20025;-61
2021/07/09 00:43:54;;;;;;;3.93;1.37;;;;;;;;;;6186123;23;20013;-61
2021/07/09 00:46:50;;;;;;;4.03;1.40;;;;;;;;;;6186554;23;19997;-61
2021/07/09 00:49:20;;;;;;;6.10;2.07;;;;;;;;;;6156114;23;20009;-61
2021/07/09 00:51:47;;;;;;;3.67;1.70;;;;;;;;;;6186967;23;19997;-61
2021/07/09 00:54:14;;;;;;;5.43;3.10;;;;;;;;;;6187106;23;20358;-61
2021/07/09 00:56:41;;;;;;;2.87;1.57;;;;;;;;;;6186772;23;20001;-61
2021/07/09 00:59:13;;;;;;;4.97;1.53;;;;;;;;;;6186688;23;20005;-61
2021/07/09 01:01:40;;;;;;;4.53;1.37;;;;;;;;;;6186322;23;20001;-61
2021/07/09 01:04:07;;;;;;;6.90;1.60;;;;;;;;;;6186011;23;20080;-61
2021/07/09 01:06:34;;;;;;;3.30;1.40;;;;;;;;;;6186000;23;20361;-61
2021/07/09 01:09:01;;;;;;;6.17;1.30;;;;;;;;;;6186072;23;20075;-61
2021/07/09 01:11:27;;;;;;;3.47;1.17;;;;;;;;;;6186107;23;20005;-61
2021/07/09 01:13:54;;;;;;;12.27;7.63;;;;;;;;;;6186353;23;20460;-61
2021/07/09 01:16:21;;;;;;;9.67;4.40;;;;;;;;;;6186110;23;20306;-61
2021/07/09 01:18:48;;;;;;;5.97;2.20;;;;;;;;;;6186265;23;20088;-61
2021/07/09 01:21:15;;;;;;;5.83;1.70;;;;;;;;;;6186178;23;20025;-61
2021/07/09 01:23:42;;;;;;;31.50;19.97;;;;;;;;;;6186445;23;20457;-61
2021/07/09 01:26:16;;;;;;;26.47;18.23;;;;;;;;;;6186260;23;20027;-61
2021/07/09 01:28:43;;;;;;;8.70;5.33;;;;;;;;;;6186841;23;20025;-61
2021/07/09 01:31:10;;;;;;;5.27;2.20;;;;;;;;;;6186275;23;20004;-61
2021/07/09 01:33:40;;;;;;;5.30;2.80;;;;;;;;;;6186635;23;20073;-61
2021/07/09 01:36:08;;;;;;;14.33;7.73;;;;;;;;;;6186449;23;20020;-61
2021/07/09 01:38:35;;;;;;;11.10;7.13;;;;;;;;;;6186052;23;20059;-61
2021/07/09 01:41:03;;;;;;;8.93;5.83;;;;;;;;;;6186310;23;20023;-61
2021/07/09 01:43:35;;;;;;;13.13;7.83;;;;;;;;;;6186159;23;20425;-61
2021/07/09 01:46:03;;;;;;;8.73;4.43;;;;;;;;;;6186022;23;20001;-61
2021/07/09 01:48:31;;;;;;;4.43;2.60;;;;;;;;;;6185791;23;20072;-61
2021/07/09 01:50:59;;;;;;;6.10;3.20;;;;;;;;;;6186216;23;20004;-61
2021/07/09 01:53:26;;;;;;;5.10;2.07;;;;;;;;;;6186027;23;20009;-61
2021/07/09 01:55:52;;;;;;;3.87;2.10;;;;;;;;;;6186219;23;20001;-61
2021/07/09 01:58:22;;;;;;;4.50;1.93;;;;;;;;;;6186065;23;20005;-61
2021/07/09 02:00:50;;;;;;;4.40;2.03;;;;;;;;;;6186214;23;20008;-61
2021/07/09 02:03:17;;;;;;;3.30;2.00;;;;;;;;;;6185759;23;20078;-61
2021/07/09 02:05:48;;;;;;;3.50;1.17;;;;;;;;;;6185702;23;20001;-61
2021/07/09 02:08:15;;;;;;;4.07;1.70;;;;;;;;;;6185503;23;20585;-61
2021/07/09 02:10:43;;;;;;;5.33;1.87;;;;;;;;;;6185794;23;20004;-61
2021/07/09 02:13:11;;;;;;;3.77;1.40;;;;;;;;;;6185824;23;20451;-61
2021/07/09 02:15:41;;;;;;;6.27;1.73;;;;;;;;;;6185516;23;20001;-61
2021/07/09 02:18:08;;;;;;;3.00;1.37;;;;;;;;;;6185772;23;20084;-61
2021/07/09 02:20:35;;;;;;;5.20;1.57;;;;;;;;;;6185689;23;20012;-61
2021/07/09 02:23:16;;;;;;;3.53;1.47;;;;;;;;;;6185818;23;20464;-61
2021/07/09 02:25:44;;;;;;;2.93;1.23;;;;;;;;;;6185736;23;20005;-61
2021/07/09 02:28:23;;;;;;;2.90;1.47;;;;;;;;;;6159559;23;20352;-61
2021/07/09 02:30:57;;;;;;;4.83;2.10;;;;;;;;;;6185628;23;20009;-61
2021/07/09 02:33:24;;;;;;;6.40;3.55;;;;;;;;;;6185802;23;20009;-61
2021/07/09 02:35:51;;;;;;;6.80;2.33;;;;;;;;;;6185639;23;20324;-61
2021/07/09 02:38:19;;;;;;;11.27;2.10;;;;;;;;;;6185746;23;20429;-61
2021/07/09 02:40:47;;;;;;;6.63;1.40;;;;;;;;;;6185698;23;20001;-61
2021/07/09 02:43:16;;;;;;;5.37;1.50;;;;;;;;;;6185561;23;20045;-61
2021/07/09 02:45:48;;;;;;;2.57;1.10;;;;;;;;;;6185536;23;20005;-61
2021/07/09 02:48:17;;;;;;;3.67;1.80;;;;;;;;;;6185974;23;20321;-61
2021/07/09 02:50:46;;;;;;;5.10;1.70;;;;;;;;;;6185455;23;20009;-61
2021/07/09 02:53:15;;;;;;;4.57;1.50;;;;;;;;;;6185083;23;20017;-60
2021/07/09 02:55:42;;;;;;;5.53;1.67;;;;;;;;;;6158966;23;20005;-60
2021/07/09 02:58:08;;;;;;;7.40;1.43;;;;;;;;;;6185103;23;20005;-61
2021/07/09 03:00:35;;;;;;;8.47;1.70;;;;;;;;;;6185253;23;20001;-60
2021/07/09 03:03:02;;;;;;;4.90;1.70;;;;;;;;;;6185468;23;20009;-60
2021/07/09 03:05:29;;;;;;;2.10;1.10;;;;;;;;;;6159324;23;20012;-61
2021/07/09 03:07:56;;;;;;;3.57;1.80;;;;;;;;;;6185104;23;20071;-60
2021/07/09 03:10:23;;;;;;;4.83;1.50;;;;;;;;;;6185765;23;19997;-60
2021/07/09 03:12:50;;;;;;;3.40;1.33;;;;;;;;;;6185001;23;20005;-60
2021/07/09 03:15:18;;;;;;;5.53;1.83;;;;;;;;;;6185690;23;20023;-60
2021/07/09 03:17:45;;;;;;;6.23;1.93;;;;;;;;;;6185555;23;19997;-60
2021/07/09 03:20:13;;;;;;;4.70;1.40;;;;;;;;;;6185363;23;20009;-60
2021/07/09 03:22:40;;;;;;;3.70;1.27;;;;;;;;;;6185269;23;20076;-60
2021/07/09 03:25:08;;;;;;;2.60;1.37;;;;;;;;;;6185660;23;20020;-60
2021/07/09 03:27:35;;;;;;;10.43;2.00;;;;;;;;;;6189196;23;20001;-61
2021/07/09 03:30:03;;;;;;;4.47;1.37;;;;;;;;;;6188213;23;20032;-60
2021/07/09 03:32:29;;;;;;;2.33;1.20;;;;;;;;;;6188235;23;19997;-60
2021/07/09 03:34:56;;;;;;;5.10;1.17;;;;;;;;;;6161911;23;20016;-60
2021/07/09 03:37:23;;;;;;;2.27;1.00;;;;;;;;;;6188350;23;20072;-60
2021/07/09 03:39:50;;;;;;;3.20;1.53;;;;;;;;;;6188575;23;20001;-60
2021/07/09 03:42:18;;;;;;;2.70;1.00;;;;;;;;;;6188365;23;20117;-60
2021/07/09 03:44:45;;;;;;;3.37;1.20;;;;;;;;;;6188522;23;20012;-60
2021/07/09 03:47:14;;;;;;;2.47;1.10;;;;;;;;;;6188710;23;19997;-60
2021/07/09 03:49:41;;;;;;;6.20;1.30;;;;;;;;;;6188579;23;20060;-60
2021/07/09 03:52:07;;;;;;;5.53;1.10;;;;;;;;;;6188492;23;20027;-60
2021/07/09 03:54:35;;;;;;;3.83;1.30;;;;;;;;;;6188465;23;20079;-60
2021/07/09 03:57:02;;;;;;;5.83;1.40;;;;;;;;;;6188291;23;20008;-60
2021/07/09 03:59:29;;;;;;;3.73;1.50;;;;;;;;;;6188784;23;20072;-60
2021/07/09 04:01:56;;;;;;;4.00;1.30;;;;;;;;;;6188453;23;20047;-60
2021/07/09 04:04:22;;;;;;;4.07;1.10;;;;;;;;;;6188160;23;20100;-59
2021/07/09 04:06:49;;;;;;;8.30;1.20;;;;;;;;;;6188337;23;20076;-60
2021/07/09 04:09:16;;;;;;;2.07;0.83;;;;;;;;;;6188455;23;20013;-59
2021/07/09 04:11:43;;;;;;;2.30;1.17;;;;;;;;;;6188298;23;20004;-59
2021/07/09 04:14:09;;;;;;;4.67;0.80;;;;;;;;;;6188276;23;20001;-60
2021/07/09 04:16:36;;;;;;;3.90;1.00;;;;;;;;;;6188142;23;20015;-59
2021/07/09 04:19:03;;;;;;;4.30;0.90;;;;;;;;;;6188389;23;20001;-59
2021/07/09 04:21:30;;;;;;;3.10;1.03;;;;;;;;;;6188707;23;20466;-59
2021/07/09 04:23:57;;;;;;;6.10;1.10;;;;;;;;;;6188197;23;20040;-59
2021/07/09 04:26:23;;;;;;;1.17;0.77;;;;;;;;;;6188254;23;20004;-59
2021/07/09 04:28:50;;;;;;;4.00;1.00;;;;;;;;;;6188959;23;20017;-59
2021/07/09 04:31:17;;;;;;;2.33;1.00;;;;;;;;;;6188354;23;20001;-59
2021/07/09 04:33:45;;;;;;;4.77;0.90;;;;;;;;;;6188323;23;20001;-60
2021/07/09 04:36:12;;;;;;;4.47;1.07;;;;;;;;;;6188230;23;20001;-59
2021/07/09 04:38:39;;;;;;;3.37;0.80;;;;;;;;;;6186514;23;20001;-59
2021/07/09 04:41:05;;;;;;;2.73;1.10;;;;;;;;;;6186588;23;20005;-59
2021/07/09 04:43:34;;;;;;;2.93;1.03;;;;;;;;;;6186966;23;20080;-59
2021/07/09 04:46:01;;;;;;;4.93;1.17;;;;;;;;;;6136112;23;20067;-59
2021/07/09 04:48:27;;;;;;;5.07;1.00;;;;;;;;;;6186575;23;20008;-59
2021/07/09 04:50:55;;;;;;;3.63;0.90;;;;;;;;;;6186662;23;19997;-59
2021/07/09 04:53:21;;;;;;;2.33;1.03;;;;;;;;;;6186414;23;20429;-59
2021/07/09 04:55:48;;;;;;;4.63;1.07;;;;;;;;;;6186738;23;20016;-59
2021/07/09 04:58:15;;;;;;;4.20;1.17;;;;;;;;;;6186399;23;20310;-59
2021/07/09 05:00:41;;;;;;;9.00;1.47;;;;;;;;;;6186365;23;20377;-59
2021/07/09 05:03:08;;;;;;;3.40;1.03;;;;;;;;;;6186254;23;20013;-59
2021/07/09 05:05:35;;;;;;;3.20;0.80;;;;;;;;;;6186399;23;20008;-59
2021/07/09 05:08:01;;;;;;;4.00;0.80;;;;;;;;;;6186353;23;20029;-59
2021/07/09 05:10:28;;;;;;;1.60;0.83;;;;;;;;;;6186263;23;20000;-59
2021/07/09 05:12:54;;;;;;;6.30;1.43;;;;;;;;;;6186786;23;20429;-59
2021/07/09 05:15:21;;;;;;;7.10;0.80;;;;;;;;;;6186329;23;19997;-59
2021/07/09 05:17:48;;;;;;;2.07;0.60;;;;;;;;;;6186176;23;20087;-59
2021/07/09 05:20:14;;;;;;;3.67;1.00;;;;;;;;;;6186387;23;19997;-59
2021/07/09 05:22:41;;;;;;;3.23;0.90;;;;;;;;;;6186041;23;20009;-59
2021/07/09 05:25:08;;;;;;;3.30;1.00;;;;;;;;;;6186146;23;20001;-59
2021/07/09 05:27:35;;;;;;;3.30;0.93;;;;;;;;;;6186873;22;20012;-59
2021/07/09 05:30:02;;;;;;;3.60;0.80;;;;;;;;;;6185963;23;20017;-59
2021/07/09 05:32:29;;;;;;;2.50;0.80;;;;;;;;;;6186200;23;20360;-59
2021/07/09 05:34:56;;;;;;;4.73;0.73;;;;;;;;;;6186246;23;20020;-59
2021/07/09 05:37:24;;;;;;;1.20;0.70;;;;;;;;;;6186162;23;20008;-59
2021/07/09 05:39:51;;;;;;;4.50;1.00;;;;;;;;;;6186042;23;20012;-59
2021/07/09 05:42:18;;;;;;;2.87;0.80;;;;;;;;;;6185938;23;20306;-59
2021/07/09 05:44:44;;;;;;;9.90;1.83;;;;;;;;;;6186116;23;20088;-59
2021/07/09 05:47:12;;;;;;;2.17;0.90;;;;;;;;;;6185917;23;20306;-59
2021/07/09 05:49:39;;;;;;;2.13;0.73;;;;;;;;;;6185600;23;20432;-59
2021/07/09 05:52:06;;;;;;;3.27;0.70;;;;;;;;;;6186075;23;20490;-59
2021/07/09 05:54:32;;;;;;;1.63;0.90;;;;;;;;;;6185880;23;20001;-59
2021/07/09 05:56:59;;;;;;;2.00;0.80;;;;;;;;;;6186157;23;20009;-59
2021/07/09 05:59:26;;;;;;;5.67;1.00;;;;;;;;;;6185918;23;20001;-59
2021/07/09 06:01:53;;;;;;;2.63;1.10;;;;;;;;;;6185811;23;20052;-59
2021/07/09 06:04:20;;;;;;;5.07;1.10;;;;;;;;;;6185682;23;20080;-59
2021/07/09 06:06:47;;;;;;;5.47;1.30;;;;;;;;;;6185882;23;20011;-59
2021/07/09 06:09:13;;;;;;;3.10;1.30;;;;;;;;;;6185795;23;20084;-59
2021/07/09 06:11:40;;;;;;;16.93;10.23;;;;;;;;;;6185741;23;20047;-59
2021/07/09 06:14:07;;;;;;;15.83;10.60;;;;;;;;;;6185799;23;20005;-59
2021/07/09 06:16:33;;;;;;;20.80;10.17;;;;;;;;;;6185653;23;20368;-59
2021/07/09 06:19:00;;;;;;;8.40;5.30;;;;;;;;;;6185720;23;20324;-59
2021/07/09 06:21:27;;;;;;;6.90;2.70;;;;;;;;;;6185787;23;20009;-59
2021/07/09 06:23:53;;;;;;;8.87;2.60;;;;;;;;;;6185948;23;20021;-59
2021/07/09 06:26:21;;;;;;;5.67;1.53;;;;;;;;;;6185529;23;20059;-59
2021/07/09 06:28:48;;;;;;;2.23;1.37;;;;;;;;;;6186357;22;20020;-59
2021/07/09 06:31:14;;;;;;;3.93;1.30;;;;;;;;;;6185601;23;20005;-59
2021/07/09 06:33:41;;;;;;;3.23;1.67;;;;;;;;;;6185621;23;20012;-59
2021/07/09 06:36:08;;;;;;;2.80;1.10;;;;;;;;;;6185814;23;19998;-59
2021/07/09 06:38:34;;;;;;;2.53;1.03;;;;;;;;;;6185403;23;20076;-59
2021/07/09 06:41:01;;;;;;;3.80;1.00;;;;;;;;;;6185528;23;20047;-59
2021/07/09 06:43:28;;;;;;;2.87;0.90;;;;;;;;;;6185653;23;20329;-59
2021/07/09 06:45:54;;;;;;;2.47;1.40;;;;;;;;;;6185366;23;20001;-59
2021/07/09 06:48:21;;;;;;;3.57;1.10;;;;;;;;;;6185433;23;20083;-59
2021/07/09 06:50:48;;;;;;;3.97;1.10;;;;;;;;;;6185384;23;20004;-59
2021/07/09 06:53:15;;;;;;;4.87;0.97;;;;;;;;;;6185312;23;20012;-59
2021/07/09 06:55:42;;;;;;;2.80;1.10;;;;;;;;;;6185765;23;20320;-59
2021/07/09 06:58:09;;;;;;;1.33;0.90;;;;;;;;;;6185478;23;19997;-59
2021/07/09 07:00:36;;;;;;;4.70;1.30;;;;;;;;;;6185226;23;20005;-59
2021/07/09 07:03:03;;;;;;;2.33;1.10;;;;;;;;;;6185224;23;20017;-59
2021/07/09 07:05:29;;;;;;;2.63;1.20;;;;;;;;;;6185106;23;20013;-59
2021/07/09 07:07:56;;;;;;;2.17;1.30;;;;;;;;;;6185263;23;20020;-59
2021/07/09 07:10:23;;;;;;;3.83;1.17;;;;;;;;;;6185211;23;19997;-59
2021/07/09 07:12:49;;;;;;;3.23;1.10;;;;;;;;;;6185181;23;20005;-59
2021/07/09 07:15:16;;;;;;;1.60;0.97;;;;;;;;;;6185497;23;20001;-59
2021/07/09 07:17:43;;;;;;;3.00;1.00;;;;;;;;;;6185260;23;20469;-59
2021/07/09 07:20:10;;;;;;;2.90;1.10;;;;;;;;;;6185338;23;20008;-59
2021/07/09 07:22:36;;;;;;;4.40;1.30;;;;;;;;;;6185655;23;20005;-59
2021/07/09 07:25:03;;;;;;;7.10;1.10;;;;;;;;;;6185054;23;20444;-59
2021/07/09 07:27:30;;;;;;;2.83;1.00;;;;;;;;;;6185478;23;20325;-59
2021/07/09 07:29:58;;;;;;;3.63;0.77;;;;;;;;;;6186023;23;20044;-59
2021/07/09 07:32:25;;;;;;;7.90;1.30;;;;;;;;;;6185166;23;20104;-59
2021/07/09 07:34:52;;;;;;;5.13;1.20;;;;;;;;;;6185272;23;20452;-59
2021/07/09 07:37:18;;;;;;;6.23;1.20;;;;;;;;;;6185006;23;20421;-59
2021/07/09 07:39:45;;;;;;;2.03;1.20;;;;;;;;;;6185137;23;20032;-59
2021/07/09 07:42:12;;;;;;;1.50;1.07;;;;;;;;;;6185061;23;20001;-59
2021/07/09 07:44:38;;;;;;;3.10;0.97;;;;;;;;;;6185041;23;20013;-59
2021/07/09 07:47:05;;;;;;;2.27;1.23;;;;;;;;;;6185159;23;20081;-59
2021/07/09 07:49:32;;;;;;;3.97;1.10;;;;;;;;;;6185229;23;20076;-59
2021/07/09 07:51:59;;;;;;;5.37;1.17;;;;;;;;;;6185085;23;20005;-59
2021/07/09 07:54:26;;;;;;;2.17;1.30;;;;;;;;;;6185156;23;20421;-59
2021/07/09 07:56:52;;;;;;;6.83;1.63;;;;;;;;;;6185111;23;20052;-59
2021/07/09 07:59:19;;;;;;;1.70;1.00;;;;;;;;;;6185065;23;20005;-59
2021/07/09 08:01:46;;;;;;;4.40;1.20;;;;;;;;;;6185216;23;20361;-59
2021/07/09 08:04:12;;;;;;;2.87;1.00;;;;;;;;;;6185029;23;20314;-58
2021/07/09 08:06:39;;;;;;;2.43;0.90;;;;;;;;;;6185379;23;20016;-59
2021/07/09 08:09:07;;;;;;;2.60;1.00;;;;;;;;;;6185087;23;20025;-59
2021/07/09 08:11:34;;;;;;;2.77;1.30;;;;;;;;;;6184800;23;20012;-59
2021/07/09 08:14:01;;;;;;;2.37;1.00;;;;;;;;;;6186492;23;20380;-59
2021/07/09 08:16:27;;;;;;;3.93;1.10;;;;;;;;;;6186927;23;20321;-59
2021/07/09 08:18:54;;;;;;;3.00;1.13;;;;;;;;;;6186727;23;20008;-59
2021/07/09 08:21:21;;;;;;;3.33;0.90;;;;;;;;;;6186719;23;20318;-59
2021/07/09 08:23:47;;;;;;;5.57;1.10;;;;;;;;;;6186702;23;20387;-59
2021/07/09 08:26:14;;;;;;;2.83;1.20;;;;;;;;;;6186658;23;20005;-59
2021/07/09 08:28:41;;;;;;;2.27;1.13;;;;;;;;;;6187362;22;20401;-59
2021/07/09 08:31:07;;;;;;;6.00;1.23;;;;;;;;;;6187189;23;20357;-59
2021/07/09 08:33:34;;;;;;;3.97;1.00;;;;;;;;;;6186639;23;20379;-59
2021/07/09 08:36:01;;;;;;;6.37;1.37;;;;;;;;;;6186646;23;20329;-59
2021/07/09 08:38:28;;;;;;;2.00;1.03;;;;;;;;;;6186783;23;20468;-58
2021/07/09 08:40:54;;;;;;;1.97;1.20;;;;;;;;;;6186782;23;20001;-58
2021/07/09 08:43:21;;;;;;;3.87;1.03;;;;;;;;;;6186591;23;20009;-58
2021/07/09 08:45:48;;;;;;;5.80;1.37;;;;;;;;;;6186914;23;20320;-59
2021/07/09 08:48:14;;;;;;;3.77;1.40;;;;;;;;;;6186483;23;20310;-59
2021/07/09 08:50:41;;;;;;;3.03;1.10;;;;;;;;;;6186413;23;20071;-59
2021/07/09 08:53:08;;;;;;;3.33;1.20;;;;;;;;;;6186983;23;20032;-59
2021/07/09 08:55:35;;;;;;;2.87;1.30;;;;;;;;;;6186329;23;20001;-59
2021/07/09 08:58:02;;;;;;;2.63;1.30;;;;;;;;;;6186356;23;20336;-59
2021/07/09 09:00:31;;;;;;;3.27;1.20;;;;;;;;;;6186545;23;20382;-59
2021/07/09 09:02:58;;;;;;;2.07;1.33;;;;;;;;;;6186776;23;20015;-59
2021/07/09 09:05:29;;;;;;;7.00;2.30;;;;;;;;;;6186383;23;20005;-59
2021/07/09 09:07:59;;;;;;;2.60;1.60;;;;;;;;;;6186706;23;20059;-59
2021/07/09 09:10:35;;;;;;;2.50;1.53;;;;;;;;;;6186373;23;20037;-59
2021/07/09 09:13:06;;;;;;;4.37;1.60;;;;;;;;;;6186252;23;20314;-59
2021/07/09 09:15:35;;;;;;;2.30;1.40;;;;;;;;;;6186416;23;20001;-59
2021/07/09 09:18:02;;;;;;;4.63;1.70;;;;;;;;;;6186188;23;20009;-59
2021/07/09 09:20:30;;;;;;;2.30;1.27;;;;;;;;;;6186456;23;20001;-59
2021/07/09 09:22:58;;;;;;;3.67;2.03;;;;;;;;;;6186152;23;20384;-59
2021/07/09 09:25:29;;;;;;;3.57;2.10;;;;;;;;;;6186331;23;20386;-59
2021/07/09 09:28:09;;;;;;;4.63;1.80;;;;;;;;;;6186333;23;20059;-59
2021/07/09 09:30:36;;;;;;;8.53;5.23;;;;;;;;;;6156573;23;20021;-59
2021/07/09 09:33:04;;;;;;;10.10;5.10;;;;;;;;;;6156310;23;20010;-59
2021/07/09 09:35:34;;;;;;;6.57;4.63;;;;;;;;;;6156479;23;20005;-59
2021/07/09 09:38:02;;;;;;;5.90;3.17;;;;;;;;;;6156349;23;20085;-59
2021/07/09 09:40:30;;;;;;;4.33;2.30;;;;;;;;;;6130740;23;20317;-59
2021/07/09 09:42:56;;;;;;;3.30;1.90;;;;;;;;;;6156283;23;20458;-59
2021/07/09 09:45:27;;;;;;;5.07;2.13;;;;;;;;;;6156111;23;20032;-59
2021/07/09 09:47:54;;;;;;;3.27;1.80;;;;;;;;;;6156319;23;20081;-59
2021/07/09 09:50:22;;;;;;;2.70;1.70;;;;;;;;;;6156110;23;20414;-59
2021/07/09 09:52:50;;;;;;;2.87;1.57;;;;;;;;;;6156679;23;20081;-59
2021/07/09 09:55:33;;;;;;;4.63;1.63;;;;;;;;;;6156229;23;20077;-59
2021/07/09 09:58:11;;;;;;;6.60;2.13;;;;;;;;;;6156114;23;20010;-59
2021/07/09 10:00:38;;;;;;;2.53;1.50;;;;;;;;;;6156267;23;19998;-59
2021/07/09 10:03:05;;;;;;;3.67;1.70;;;;;;;;;;6156114;23;20017;-58
2021/07/09 10:05:51;;;;;;;7.40;2.67;;;;;;;;;;6156022;23;20060;-58
2021/07/09 10:08:19;;;;;;;3.20;1.70;;;;;;;;;;6155919;23;20093;-59
2021/07/09 10:10:46;;;;;;;3.80;1.90;;;;;;;;;;6155839;23;20005;-59
2021/07/09 10:13:14;;;;;;;3.97;2.67;;;;;;;;;;6156154;23;20005;-58
2021/07/09 10:15:44;;;;;;;4.23;2.30;;;;;;;;;;6155997;23;20322;-59
2021/07/09 10:18:14;;;;;;;6.73;2.40;;;;;;;;;;6155936;23;20140;-59
2021/07/09 10:20:45;;;;;;;6.87;2.10;;;;;;;;;;6155973;23;20006;-59
2021/07/09 10:23:14;;;;;;;4.77;2.10;;;;;;;;;;6155889;23;20145;-59
2021/07/09 10:25:40;;;;;;;4.67;2.30;;;;;;;;;;6155729;23;20361;-59
2021/07/09 10:28:10;;;;;;;4.90;1.97;;;;;;;;;;6156227;23;20006;-58
2021/07/09 10:30:44;;;;;;;2.73;1.60;;;;;;;;;;6185614;23;20491;-59
2021/07/09 10:33:25;;;;;;;4.43;1.87;;;;;;;;;;6185706;23;20028;-59
2021/07/09 10:35:52;;;;;;;4.77;1.67;;;;;;;;;;6185305;23;20005;-59
2021/07/09 10:38:22;;;;;;;4.30;1.87;;;;;;;;;;6185475;23;20028;-59
2021/07/09 10:40:49;;;;;;;5.53;1.90;;;;;;;;;;6185548;23;20001;-59
2021/07/09 10:43:17;;;;;;;5.20;2.00;;;;;;;;;;6185484;23;20033;-59
2021/07/09 10:45:45;;;;;;;5.17;1.97;;;;;;;;;;6185475;23;20011;-59
2021/07/09 10:48:17;;;;;;;1.87;1.30;;;;;;;;;;6185487;23;19997;-59
2021/07/09 10:50:44;;;;;;;3.73;1.67;;;;;;;;;;6185529;23;20384;-58
2021/07/09 10:53:11;;;;;;;3.57;1.80;;;;;;;;;;6185478;23;20012;-59
2021/07/09 10:55:43;;;;;;;4.13;1.50;;;;;;;;;;6185315;23;20068;-58
2021/07/09 10:58:10;;;;;;;6.73;1.93;;;;;;;;;;6185395;23;20008;-59
2021/07/09 11:00:55;;;;;;;2.70;1.63;;;;;;;;;;6185289;23;20342;-58
2021/07/09 11:03:22;;;;;;;4.15;1.52;;;;;;;;;;6185222;23;20365;-59
2021/07/09 11:05:52;;;;;;;2.93;1.60;;;;;;;;;;6158955;23;20328;-59
2021/07/09 11:08:31;;;;;;;11.87;1.80;;;;;;;;;;6185381;23;20017;-59
2021/07/09 11:10:58;;;;;;;1.80;1.23;;;;;;;;;;6185129;23;20310;-59
2021/07/09 11:13:44;;;;;;;4.43;1.83;;;;;;;;;;6185220;23;20005;-59
2021/07/09 11:16:27;;;;;;;3.63;1.67;;;;;;;;;;6185201;23;20436;-59
2021/07/09 11:19:07;;;;;;;7.47;1.70;;;;;;;;;;6185225;23;20001;-58
2021/07/09 11:21:34;;;;;;;2.03;1.33;;;;;;;;;;6185213;23;20009;-59
2021/07/09 11:24:03;;;;;;;4.87;1.27;;;;;;;;;;6185214;23;20009;-58
2021/07/09 11:26:31;;;;;;;4.63;2.00;;;;;;;;;;6185216;23;20001;-59
2021/07/09 11:28:58;;;;;;;2.30;1.33;;;;;;;;;;6185813;22;20044;-59
2021/07/09 11:31:31;;;;;;;2.67;1.40;;;;;;;;;;6185384;23;20320;-59
2021/07/09 11:34:01;;;;;;;1.37;0.87;;;;;;;;;;6185207;23;20001;-59
2021/07/09 11:36:28;;;;;;;6.87;2.03;;;;;;;;;;6185228;23;20551;-59
2021/07/09 11:39:13;;;;;;;2.10;1.40;;;;;;;;;;6185109;23;20017;-58
2021/07/09 11:41:58;;;;;;;9.65;1.65;;;;;;;;;;6185140;23;20009;-59
2021/07/09 11:44:29;;;;;;;2.45;1.30;;;;;;;;;;6185110;23;20009;-59
2021/07/09 11:46:57;;;;;;;4.23;1.87;;;;;;;;;;6185883;23;20072;-59
2021/07/09 11:49:27;;;;;;;2.90;1.33;;;;;;;;;;6187114;23;20068;-59
2021/07/09 11:51:56;;;;;;;5.47;1.70;;;;;;;;;;6187039;23;20310;-58
2021/07/09 11:54:23;;;;;;;3.37;1.53;;;;;;;;;;6187079;23;20013;-58
2021/07/09 11:56:57;;;;;;;6.50;1.40;;;;;;;;;;6186881;23;20332;-59
2021/07/09 11:59:25;;;;;;;5.03;1.80;;;;;;;;;;6187109;23;20035;-59
2021/07/09 12:02:01;;;;;;;7.07;1.70;;;;;;;;;;6186949;23;20001;-59
2021/07/09 12:04:31;;;;;;;5.13;1.60;;;;;;;;;;6187001;23;20028;-59
2021/07/09 12:07:21;;;;;;;6.63;2.10;;;;;;;;;;6186977;23;20072;-59
2021/07/09 12:09:51;;;;;;;2.80;1.70;;;;;;;;;;6186910;23;20488;-59
2021/07/09 12:12:17;;;;;;;3.20;1.70;;;;;;;;;;6186839;23;20015;-59
2021/07/09 12:14:51;;;;;;;4.07;1.60;;;;;;;;;;6186692;23;20009;-59
2021/07/09 12:17:18;;;;;;;8.63;1.60;;;;;;;;;;6186844;23;20012;-59
2021/07/09 12:19:55;;;;;;;3.20;1.77;;;;;;;;;;6186842;23;20455;-59
2021/07/09 12:22:26;;;;;;;3.20;1.90;;;;;;;;;;6186934;23;20333;-59
2021/07/09 12:24:53;;;;;;;12.87;5.93;;;;;;;;;;6186654;23;20009;-59
2021/07/09 12:27:20;;;;;;;10.40;4.87;;;;;;;;;;6186905;23;20001;-59
2021/07/09 12:29:48;;;;;;;6.57;3.37;;;;;;;;;;6187505;23;20021;-59
2021/07/09 12:32:14;;;;;;;7.97;2.80;;;;;;;;;;6186814;23;20068;-59
2021/07/09 12:34:41;;;;;;;9.63;2.77;;;;;;;;;;6186522;23;20005;-59
2021/07/09 12:37:08;;;;;;;8.50;3.30;;;;;;;;;;6186720;23;20012;-59
2021/07/09 12:39:35;;;;;;;7.40;3.13;;;;;;;;;;6186807;23;20023;-59
2021/07/09 12:42:12;;;;;;;6.67;2.73;;;;;;;;;;6186707;23;20001;-59
2021/07/09 12:44:52;;;;;;;8.73;3.70;;;;;;;;;;6186580;23;20009;-59
2021/07/09 12:47:18;;;;;;;10.27;4.53;;;;;;;;;;6186754;23;20333;-59
2021/07/09 12:49:45;;;;;;;7.37;3.80;;;;;;;;;;6187011;23;20005;-58
2021/07/09 12:52:12;;;;;;;6.67;3.50;;;;;;;;;;6186472;23;20032;-59
2021/07/09 12:54:39;;;;;;;8.37;3.50;;;;;;;;;;6186519;23;20012;-59
2021/07/09 12:57:05;;;;;;;6.73;3.10;;;;;;;;;;6186627;23;20013;-59
2021/07/09 12:59:32;;;;;;;5.40;2.77;;;;;;;;;;6186170;23;20001;-59
2021/07/09 13:02:00;;;;;;;6.53;3.00;;;;;;;;;;6186529;23;20456;-59
2021/07/09 13:04:31;;;;;;;9.03;3.10;;;;;;;;;;6186365;23;20088;-59
2021/07/09 13:07:21;;;;;;;9.03;3.47;;;;;;;;;;6186567;23;19997;-59
2021/07/09 13:09:56;;;;;;;9.47;4.30;;;;;;;;;;6186138;23;20017;-59
2021/07/09 13:12:29;;;;;;;11.82;5.45;;;;;;;;;;6186380;23;20009;-59
2021/07/09 13:15:03;;;;;;;5.87;3.20;;;;;;;;;;6186257;23;20005;-58
2021/07/09 13:17:32;;;;;;;5.53;3.90;;;;;;;;;;6186708;23;20009;-59
2021/07/09 13:20:00;;;;;;;11.63;3.80;;;;;;;;;;6186415;23;20004;-59
2021/07/09 13:22:30;;;;;;;7.73;3.60;;;;;;;;;;6186365;23;20009;-59
2021/07/09 13:25:08;;;;;;;5.50;2.97;;;;;;;;;;6186056;23;20017;-59
2021/07/09 13:27:35;;;;;;;6.17;3.20;;;;;;;;;;6186331;23;20417;-59
2021/07/09 13:30:03;;;;;;;8.53;3.17;;;;;;;;;;6186857;23;20017;-59
2021/07/09 13:32:34;;;;;;;6.70;3.00;;;;;;;;;;6186333;23;20020;-59
2021/07/09 13:35:02;;;;;;;7.60;3.30;;;;;;;;;;6185917;23;20008;-59
2021/07/09 13:37:29;;;;;;;7.20;3.40;;;;;;;;;;6159794;23;20428;-59
2021/07/09 13:39:55;;;;;;;12.37;4.23;;;;;;;;;;6186208;23;20055;-59
2021/07/09 13:42:22;;;;;;;5.70;3.97;;;;;;;;;;6186013;23;20020;-59
2021/07/09 13:44:49;;;;;;;7.30;3.27;;;;;;;;;;6185839;23;20017;-59
2021/07/09 13:47:17;;;;;;;4.43;2.80;;;;;;;;;;6185950;23;20028;-59
2021/07/09 13:49:44;;;;;;;6.30;3.20;;;;;;;;;;6186137;23;20005;-59
2021/07/09 13:52:11;;;;;;;7.67;3.97;;;;;;;;;;6185911;23;20001;-59
2021/07/09 13:54:38;;;;;;;4.80;3.27;;;;;;;;;;6185960;23;20443;-59
2021/07/09 13:57:04;;;;;;;7.90;4.17;;;;;;;;;;6186120;23;20459;-59
2021/07/09 13:59:31;;;;;;;6.67;3.70;;;;;;;;;;6185756;23;20005;-59
2021/07/09 14:01:58;;;;;;;7.43;4.20;;;;;;;;;;6185607;23;20009;-59
2021/07/09 14:04:25;;;;;;;6.70;3.53;;;;;;;;;;6185734;23;20017;-59
2021/07/09 14:06:51;;;;;;;9.30;3.90;;;;;;;;;;6185893;23;20055;-59
2021/07/09 14:09:18;;;;;;;9.80;4.07;;;;;;;;;;6185674;23;20380;-59
2021/07/09 14:11:45;;;;;;;6.70;3.70;;;;;;;;;;6185170;23;20302;-59
2021/07/09 14:14:12;;;;;;;12.50;5.77;;;;;;;;;;6159087;23;20028;-59
2021/07/09 14:16:39;;;;;;;8.40;4.33;;;;;;;;;;6185786;23;20024;-59
2021/07/09 14:19:05;;;;;;;10.53;4.23;;;;;;;;;;6185809;23;20024;-59
2021/07/09 14:21:32;;;;;;;7.07;3.93;;;;;;;;;;6185747;23;20008;-59
2021/07/09 14:23:59;;;;;;;12.93;4.27;;;;;;;;;;6185604;23;20012;-59
2021/07/09 14:26:26;;;;;;;7.40;2.60;;;;;;;;;;6185700;23;20337;-59
2021/07/09 14:28:53;;;;;;;3.23;2.20;;;;;;;;;;6186372;22;20332;-60
2021/07/09 14:31:19;;;;;;;4.70;2.10;;;;;;;;;;6185792;23;20001;-59
2021/07/09 14:33:46;;;;;;;6.10;1.77;;;;;;;;;;6185718;23;20013;-59
2021/07/09 14:36:13;;;;;;;4.40;2.10;;;;;;;;;;6185503;23;20051;-59
2021/07/09 14:38:40;;;;;;;4.63;2.30;;;;;;;;;;6185599;23;20012;-59
2021/07/09 14:41:06;;;;;;;8.27;2.90;;;;;;;;;;6185594;23;20068;-59
2021/07/09 14:43:34;;;;;;;5.23;2.57;;;;;;;;;;6185485;23;20016;-59
2021/07/09 14:46:01;;;;;;;4.07;2.20;;;;;;;;;;6185441;23;20055;-59
2021/07/09 14:48:28;;;;;;;3.83;2.17;;;;;;;;;;6185458;23;20013;-60
2021/07/09 14:50:55;;;;;;;3.67;2.00;;;;;;;;;;6185585;23;19997;-59